KHMN

Holloman AFB Airport

Alamogordo, New Mexico, USA
METAR KHMN 141258Z AUTO 16008KT 10SM CLR 22/12 A3002 RMK AO2 SLP090 T02180115
Observed Flight Rules
Aug-14 @ 12:58 UTC (43 minutes ago) Visual Flight Rules
Wind Visibility Clouds
160° at 8 knots 10 miles
  • Clear skies
Temperatures Readings
Current 22°C / 72°F
Dewpoint 12°C / 54°F
Humidity 53%
Altimeter 30.02" Hg
Pressure 1009 hPa
Elevation 1248
METAR KHMN 141258Z AUTO 16008KT 10SM CLR 22/12 A3002 RMK AO2 SLP090 T02180115
Observed Flight Rules
Aug-14 @ 12:58 UTC
(43 minutes ago)
VFR
Wind Visibility
160° at 8 knots 10 miles
Clouds
  • Clear skies
Temperature Dewpoint
22°C / 72°F 12°C / 54°F
Humidity Altimeter Pressure
53% 30.02" Hg 1009 hPa